Ana Sayfa
METAR-TAF:

METAR-TAF

Havaalanları :

Hagåtña, Guam, Amerika Birleşik Devletleri

Enlem: 13-29N, Boylam: 144-48E, yükseklik: 91 m

Güncel hava durumu gözlemi

Rapor saat 21:54 UTC de 42 dakika önce yapıldı.
Sakin rüzgar
Sıcaklık 30°C
Nem 84%
Basınç 1012 hPa
Görüş mesafesi: 16.1 km
1700 ft yükseklikte az bulutlu

METAR: PGUM 212154Z 00000KT 10SM FEW017 30/27 A2989 RMK AO2 SLP114 T03000267

Saat: 08:36 (22:36 UTC)

Tahmin

Rapor saat 17:28 UTC de 5 saat ve 8 dakika önce yapıldı.
Ayın 21'si saat 18 UTC'den ayın 22'si saat 24 UTC'ye kadar geçerli Tahmin
Rüzgar değişken yönden 5 kt
Görüş mesafesi: 10 km
2000 ft yükseklikte az bulutlu
Ayın 21'si saat 2200 UTC'den
Rüzgar değişken yönden 6 kt
Görüş mesafesi: 10 km
2000 ft yükseklikte parçalı bulutlu
4000 ft yükseklikte parçalı bulutlu
Civarda sağanaklar

TAF: PGUM 211728Z 2118/2224 VRB05KT P6SM FEW020 FM212200 VRB06KT P6SM VCSH SCT020 SCT040

4.000'den fazla havaalanı için hava durumu gözlemleri ve tahminleri (METAR ve TAF raporları).

Kullanılabilir istasyonlar harita üzerinde sarı ve kırmızı noktalarla gösterilir.

İstasyonun adını görmek için fareyi noktanın üzerinde gezdirin.

Sonrasında hava gözlem ve tahminlerini görmek için tıklayın.

Haritayı değiştirmek için: yaklaştırmak için siyah artı işaretli yeşil düğmeye ve uzaklaştırmak için de eksi işaretli düğmeye hızla tıklayın; bitişik haritalar için yeşil okları kullanın.


METAR-TAF: